createdAt,value
2023-03-08T00:02:08.334Z,30.10
2023-03-08T00:04:39.555Z,30.08
2023-03-08T00:07:09.523Z,30.09
2023-03-08T00:09:40.861Z,30.10
2023-03-08T00:12:12.822Z,30.09
2023-03-08T00:14:42.948Z,30.10
2023-03-08T00:17:12.886Z,30.10
2023-03-08T00:19:42.795Z,30.08
2023-03-08T00:22:13.798Z,30.11
2023-03-08T00:24:43.468Z,30.06
2023-03-08T00:27:13.390Z,30.08
2023-03-08T00:29:43.378Z,30.12
2023-03-08T00:32:13.215Z,30.10
2023-03-08T00:34:48.455Z,30.11
2023-03-08T00:37:18.466Z,30.08
2023-03-08T00:39:56.607Z,30.07
2023-03-08T00:42:27.235Z,30.10
2023-03-08T00:44:57.623Z,30.07
2023-03-08T00:47:27.532Z,30.08
2023-03-08T00:49:57.832Z,30.05
2023-03-08T00:52:27.962Z,30.06
2023-03-08T00:55:15.913Z,30.05
2023-03-08T00:57:45.927Z,30.06
2023-03-08T01:00:16.483Z,30.06
2023-03-08T01:02:46.635Z,30.04
2023-03-08T01:05:16.714Z,30.07
2023-03-08T01:07:46.979Z,30.06
2023-03-08T01:10:17.409Z,30.06
2023-03-08T01:12:47.513Z,30.07
2023-03-08T01:15:17.667Z,30.12
2023-03-08T01:17:47.486Z,30.08
2023-03-08T01:20:17.382Z,30.10
2023-03-08T01:22:47.180Z,30.08
2023-03-08T01:25:17.037Z,30.10
2023-03-08T01:27:46.895Z,30.07
2023-03-08T01:30:17.264Z,30.08
2023-03-08T01:32:47.290Z,30.08
2023-03-08T01:35:17.245Z,30.09
2023-03-08T01:37:55.648Z,30.08
2023-03-08T01:40:25.760Z,30.09
2023-03-08T01:42:55.605Z,30.10
2023-03-08T01:46:02.338Z,30.10
2023-03-08T01:49:22.373Z,30.11
2023-03-08T01:51:54.416Z,30.12
2023-03-08T01:55:13.972Z,30.13
2023-03-08T01:57:51.506Z,30.15
2023-03-08T02:00:28.973Z,30.15
2023-03-08T02:03:04.410Z,30.18
2023-03-08T02:05:38.082Z,30.16
2023-03-08T02:08:16.764Z,30.15
2023-03-08T02:10:47.847Z,30.17
2023-03-08T02:13:18.858Z,30.16
2023-03-08T02:16:10.620Z,30.16
2023-03-08T02:19:19.606Z,30.16
2023-03-08T02:22:15.350Z,30.19
2023-03-08T02:24:45.769Z,30.20
2023-03-08T02:27:28.387Z,30.22
2023-03-08T02:29:58.459Z,30.23
2023-03-08T02:32:28.642Z,30.25
2023-03-08T02:34:58.735Z,30.25
2023-03-08T02:37:28.621Z,30.28
2023-03-08T02:39:58.511Z,30.27
2023-03-08T02:42:28.520Z,30.26
2023-03-08T02:44:58.448Z,30.28
2023-03-08T02:47:28.390Z,30.29
2023-03-08T02:50:16.715Z,30.33
2023-03-08T02:52:47.668Z,30.32
2023-03-08T02:55:17.900Z,30.34
2023-03-08T02:57:48.329Z,30.35
2023-03-08T03:00:21.125Z,30.35
2023-03-08T03:02:51.413Z,30.33
2023-03-08T03:05:22.862Z,30.33
2023-03-08T03:08:11.396Z,30.34
2023-03-08T03:13:09.362Z,30.35
2023-03-08T03:15:42.671Z,30.36
2023-03-08T03:18:12.716Z,30.35
2023-03-08T03:20:42.579Z,30.36
2023-03-08T03:23:12.437Z,30.37
2023-03-08T03:25:51.795Z,30.37
2023-03-08T03:28:23.638Z,30.39
2023-03-08T03:31:14.955Z,30.40
2023-03-08T03:34:03.390Z,30.40
2023-03-08T03:36:34.284Z,30.41
2023-03-08T03:39:05.066Z,30.42
2023-03-08T03:41:37.804Z,30.42
2023-03-08T03:44:12.771Z,30.43
2023-03-08T03:46:44.664Z,30.42
2023-03-08T03:49:18.827Z,30.42
2023-03-08T03:51:49.611Z,30.44
2023-03-08T03:57:23.222Z,30.44
2023-03-08T04:00:12.409Z,30.45
2023-03-08T04:02:49.025Z,30.44
2023-03-08T04:05:21.940Z,30.45
2023-03-08T04:07:55.179Z,30.47
2023-03-08T04:13:15.019Z,30.49
2023-03-08T04:15:45.834Z,30.50
2023-03-08T04:18:16.414Z,30.50
2023-03-08T04:20:49.229Z,30.51
2023-03-08T04:23:37.732Z,30.52
2023-03-08T04:26:10.708Z,30.54
2023-03-08T04:28:40.800Z,30.54
2023-03-08T04:31:23.338Z,30.54
2023-03-08T04:34:11.645Z,30.54
2023-03-08T04:36:42.476Z,30.54
2023-03-08T04:39:12.598Z,30.57
2023-03-08T04:41:42.625Z,30.56
2023-03-08T04:44:23.546Z,30.59
2023-03-08T04:46:56.264Z,30.58
2023-03-08T04:49:44.356Z,30.59
2023-03-08T04:52:15.469Z,30.61
2023-03-08T04:54:46.307Z,30.62
2023-03-08T05:00:16.450Z,30.64
2023-03-08T05:02:46.882Z,30.65
2023-03-08T05:05:20.478Z,30.63
2023-03-08T05:07:51.031Z,30.64
2023-03-08T05:10:21.304Z,30.66
2023-03-08T05:12:53.028Z,30.66
2023-03-08T05:15:25.708Z,30.67
2023-03-08T05:17:55.899Z,30.67
2023-03-08T05:20:25.822Z,30.70
2023-03-08T05:22:59.008Z,30.68
2023-03-08T05:25:45.925Z,30.69
2023-03-08T05:28:18.033Z,30.70
2023-03-08T05:30:49.704Z,30.72
2023-03-08T05:33:21.189Z,30.72
2023-03-08T05:38:42.376Z,30.74
2023-03-08T05:41:18.967Z,30.76
2023-03-08T05:43:52.863Z,30.78
2023-03-08T05:46:41.554Z,30.75
2023-03-08T05:49:14.329Z,30.77
2023-03-08T05:51:45.093Z,30.78
2023-03-08T05:54:15.124Z,30.76
2023-03-08T05:56:47.758Z,30.79
2023-03-08T05:59:29.020Z,30.79
2023-03-08T06:02:03.777Z,30.80
2023-03-08T06:04:47.531Z,30.82
2023-03-08T06:07:20.373Z,30.81
2023-03-08T06:09:56.977Z,30.83
2023-03-08T06:12:28.247Z,30.84
2023-03-08T06:15:02.076Z,30.86
2023-03-08T06:17:36.826Z,30.85
2023-03-08T06:23:30.439Z,30.89
2023-03-08T06:26:18.706Z,30.90
2023-03-08T06:28:49.251Z,30.89
2023-03-08T06:31:20.837Z,30.89
2023-03-08T06:37:13.682Z,30.92
2023-03-08T06:40:03.108Z,30.92
2023-03-08T06:42:51.485Z,30.93
2023-03-08T06:45:21.509Z,30.93
2023-03-08T06:47:51.384Z,30.92
2023-03-08T06:50:21.729Z,30.94
2023-03-08T06:52:53.169Z,30.95
2023-03-08T06:55:33.499Z,30.95
2023-03-08T06:58:21.976Z,30.97
2023-03-08T07:01:11.940Z,30.99
2023-03-08T07:03:42.264Z,30.99
2023-03-08T07:06:12.823Z,31.01
2023-03-08T07:08:43.788Z,31.02
2023-03-08T07:11:14.035Z,31.04
2023-03-08T07:13:44.033Z,31.04
2023-03-08T07:16:15.944Z,31.06
2023-03-08T07:18:46.156Z,31.03
2023-03-08T07:21:16.036Z,31.04
2023-03-08T07:23:45.902Z,31.06
2023-03-08T07:26:15.732Z,31.07
2023-03-08T07:28:45.576Z,31.08
2023-03-08T07:31:15.825Z,31.07
2023-03-08T07:33:46.026Z,31.08
2023-03-08T07:36:16.310Z,31.09
2023-03-08T07:38:47.166Z,31.10
2023-03-08T07:41:17.212Z,31.11
2023-03-08T07:43:47.275Z,31.13
2023-03-08T07:46:20.522Z,31.14
2023-03-08T07:48:50.571Z,31.16
2023-03-08T07:51:20.516Z,31.15
2023-03-08T07:53:50.598Z,31.18
2023-03-08T07:56:20.941Z,31.17
2023-03-08T07:58:51.012Z,31.18
2023-03-08T08:01:21.167Z,31.18
2023-03-08T08:03:51.092Z,31.18
2023-03-08T08:06:21.108Z,31.18
2023-03-08T08:08:50.952Z,31.19
2023-03-08T08:11:24.752Z,31.18
2023-03-08T08:13:54.965Z,31.18
2023-03-08T08:16:25.190Z,31.19
2023-03-08T08:18:56.603Z,31.19
2023-03-08T08:24:30.846Z,31.20
2023-03-08T08:27:19.360Z,31.22
2023-03-08T08:29:51.682Z,31.21
2023-03-08T08:32:21.641Z,31.22
2023-03-08T08:34:51.479Z,31.24
2023-03-08T08:37:22.604Z,31.23
2023-03-08T08:40:13.404Z,31.25
2023-03-08T08:42:43.585Z,31.25
2023-03-08T08:45:13.861Z,31.24
2023-03-08T08:47:43.909Z,31.25
2023-03-08T08:50:14.306Z,31.25
2023-03-08T08:52:44.411Z,31.26
2023-03-08T08:55:14.884Z,31.26
2023-03-08T08:57:44.879Z,31.25
2023-03-08T09:00:15.418Z,31.24
2023-03-08T09:02:45.452Z,31.26
2023-03-08T09:05:15.630Z,31.23
2023-03-08T09:08:04.310Z,31.26
2023-03-08T09:13:23.098Z,31.26
2023-03-08T09:15:53.000Z,31.26
2023-03-08T09:18:22.840Z,31.26
2023-03-08T09:20:52.784Z,31.27
2023-03-08T09:23:23.462Z,31.27
2023-03-08T09:26:11.727Z,31.26
2023-03-08T09:28:41.891Z,31.28
2023-03-08T09:31:17.095Z,31.26
2023-03-08T09:33:50.535Z,31.26
2023-03-08T09:36:20.744Z,31.27
2023-03-08T09:38:52.440Z,31.25
2023-03-08T09:41:25.336Z,31.25
2023-03-08T09:44:13.921Z,31.25
2023-03-08T09:46:51.074Z,31.24
2023-03-08T09:49:40.933Z,31.27
2023-03-08T09:52:35.580Z,31.26
2023-03-08T09:55:08.244Z,31.27
2023-03-08T09:57:44.565Z,31.28
2023-03-08T10:00:40.508Z,31.27
2023-03-08T10:03:40.848Z,31.28
2023-03-08T10:06:37.071Z,31.28
2023-03-08T10:09:45.155Z,31.29
2023-03-08T10:12:54.911Z,31.28
2023-03-08T10:15:27.417Z,31.26
2023-03-08T10:18:03.841Z,31.28
2023-03-08T10:20:52.350Z,31.28
2023-03-08T10:23:24.162Z,31.25
2023-03-08T10:25:54.265Z,31.28
2023-03-08T10:28:26.690Z,31.29
2023-03-08T10:31:02.367Z,31.28
2023-03-08T10:33:38.217Z,31.28
2023-03-08T10:36:19.772Z,31.29
2023-03-08T10:39:09.564Z,31.29
2023-03-08T10:41:48.112Z,31.29
2023-03-08T10:44:42.129Z,31.31
2023-03-08T10:47:36.632Z,31.32
2023-03-08T10:50:16.115Z,31.30
2023-03-08T10:52:48.299Z,31.30
2023-03-08T10:55:25.356Z,31.29
2023-03-08T10:58:01.023Z,31.30
2023-03-08T11:00:38.212Z,31.29
2023-03-08T11:03:23.586Z,31.29
2023-03-08T11:05:55.934Z,31.28
2023-03-08T11:08:32.724Z,31.28
2023-03-08T11:11:08.732Z,31.31
2023-03-08T11:13:44.180Z,31.31
2023-03-08T11:16:37.087Z,31.29
2023-03-08T11:19:25.742Z,31.29
2023-03-08T11:22:14.931Z,31.30
2023-03-08T11:25:02.908Z,31.28
2023-03-08T11:28:10.490Z,31.30
2023-03-08T11:30:59.532Z,31.30
2023-03-08T11:34:09.624Z,31.29
2023-03-08T11:37:05.336Z,31.29
2023-03-08T11:39:43.151Z,31.29
2023-03-08T11:43:04.255Z,31.27
2023-03-08T11:45:39.564Z,31.26
2023-03-08T11:48:27.736Z,31.25
2023-03-08T11:51:27.343Z,31.25
2023-03-08T11:54:06.095Z,31.23
2023-03-08T11:56:36.668Z,31.24
2023-03-08T11:59:16.739Z,31.24
2023-03-08T12:02:13.673Z,31.25
2023-03-08T12:05:17.310Z,31.27
2023-03-08T12:07:55.019Z,31.26
2023-03-08T12:10:34.209Z,31.26
2023-03-08T12:13:44.420Z,31.27
2023-03-08T12:16:34.773Z,31.28
2023-03-08T12:19:38.266Z,31.27
2023-03-08T12:22:48.225Z,31.26
2023-03-08T12:25:35.581Z,31.26
2023-03-08T12:28:31.198Z,31.28
2023-03-08T12:31:28.917Z,31.26
2023-03-08T12:34:01.448Z,31.26
2023-03-08T12:36:46.284Z,31.25
2023-03-08T12:39:35.467Z,31.25
2023-03-08T12:42:14.085Z,31.24
2023-03-08T12:44:44.842Z,31.25
2023-03-08T12:47:15.485Z,31.24
2023-03-08T14:56:35.988Z,30.95
2023-03-08T14:59:12.127Z,30.99
2023-03-08T15:01:47.214Z,31.04
2023-03-08T15:04:24.560Z,31.09
2023-03-08T15:06:56.162Z,31.15
2023-03-08T15:09:26.089Z,31.16
2023-03-08T15:11:56.386Z,31.21
2023-03-08T15:14:26.258Z,31.27
2023-03-08T15:16:59.986Z,31.25
2023-03-08T15:19:29.722Z,31.30
2023-03-08T15:21:59.594Z,31.33
2023-03-08T15:24:29.683Z,31.36
2023-03-08T15:26:59.501Z,31.39
2023-03-08T15:29:31.033Z,31.38
2023-03-08T15:32:04.180Z,31.41
2023-03-08T15:36:45.882Z,31.38
2023-03-08T15:39:16.391Z,31.33
2023-03-08T15:41:46.729Z,31.33
2023-03-08T15:44:16.982Z,31.31
2023-03-08T15:46:51.511Z,31.31
2023-03-08T15:49:23.167Z,31.29
2023-03-08T15:51:53.866Z,31.31
2023-03-08T15:54:24.002Z,31.31
2023-03-08T15:56:54.250Z,31.31
2023-03-08T15:59:26.150Z,31.28
2023-03-08T16:01:56.453Z,31.30
2023-03-08T16:04:26.738Z,31.26
2023-03-08T16:06:57.032Z,31.27
2023-03-08T16:09:27.237Z,31.28
2023-03-08T16:11:57.462Z,31.24
2023-03-08T16:14:27.790Z,31.25
2023-03-08T16:16:57.857Z,31.22
2023-03-08T16:19:27.803Z,31.18
2023-03-08T16:21:57.726Z,31.21
2023-03-08T16:24:27.918Z,31.19
2023-03-08T16:26:58.339Z,31.19
2023-03-08T16:29:28.884Z,31.17
2023-03-08T16:32:00.781Z,31.17
2023-03-08T16:34:32.140Z,31.17
2023-03-08T16:37:03.515Z,31.16
2023-03-08T16:39:33.737Z,31.15
2023-03-08T16:42:03.767Z,31.14
2023-03-08T16:44:33.730Z,31.14
2023-03-08T16:47:03.649Z,31.12
2023-03-08T16:49:33.671Z,31.10
2023-03-08T16:52:03.966Z,31.12
2023-03-08T16:54:34.203Z,31.13
2023-03-08T16:57:18.208Z,31.10
2023-03-08T16:59:49.212Z,31.10
2023-03-08T17:02:21.940Z,31.06
2023-03-08T17:04:52.528Z,31.07
2023-03-08T17:07:22.877Z,31.04
2023-03-08T17:12:40.529Z,31.06
2023-03-08T17:15:15.980Z,31.05
2023-03-08T17:17:49.366Z,31.03
2023-03-08T17:20:24.468Z,31.03
2023-03-08T17:22:54.603Z,31.02
2023-03-08T17:25:27.553Z,31.04
2023-03-08T17:27:57.967Z,31.05
2023-03-08T17:30:28.226Z,31.04
2023-03-08T17:32:58.945Z,31.02
2023-03-08T17:35:34.057Z,31.03
2023-03-08T17:38:04.404Z,31.03
2023-03-08T17:40:34.541Z,31.02
2023-03-08T17:43:07.442Z,31.04
2023-03-08T17:45:37.741Z,31.02
2023-03-08T17:48:08.099Z,31.03
2023-03-08T17:50:40.858Z,31.02
2023-03-08T17:53:14.866Z,31.01
2023-03-08T17:55:44.959Z,31.00
2023-03-08T17:58:15.208Z,30.97
2023-03-08T18:00:45.390Z,30.95
2023-03-08T18:03:15.632Z,30.96
2023-03-08T18:06:03.905Z,30.96
2023-03-08T18:08:35.548Z,30.96
2023-03-08T18:11:06.137Z,30.96
2023-03-08T18:13:36.391Z,30.95
2023-03-08T18:16:07.911Z,30.94
2023-03-08T18:18:38.360Z,30.95
2023-03-08T18:21:13.914Z,30.96
2023-03-08T18:23:45.492Z,30.97
2023-03-08T18:26:15.745Z,30.94
2023-03-08T18:28:46.085Z,30.97
2023-03-08T18:31:25.392Z,30.98
2023-03-08T18:33:56.409Z,30.95
2023-03-08T18:36:27.749Z,30.96
2023-03-08T18:38:58.033Z,30.94
2023-03-08T18:41:30.437Z,30.94
2023-03-08T18:44:02.250Z,30.94
2023-03-08T18:46:34.660Z,30.93
2023-03-08T18:49:09.043Z,30.92
2023-03-08T18:51:42.680Z,30.92
2023-03-08T18:54:19.301Z,30.92
2023-03-08T18:56:52.231Z,30.89
2023-03-08T18:59:23.281Z,30.88
2023-03-08T19:01:53.827Z,30.90
2023-03-08T19:05:01.803Z,30.91
2023-03-08T19:07:15.496Z,30.91
2023-03-08T19:09:47.213Z,30.92
2023-03-08T19:12:18.128Z,30.90
2023-03-08T19:14:51.033Z,30.91
2023-03-08T19:17:21.092Z,30.90
2023-03-08T19:19:51.088Z,30.88
2023-03-08T19:22:21.468Z,30.91
2023-03-08T19:24:51.611Z,30.88
2023-03-08T19:27:21.574Z,30.90
2023-03-08T19:29:51.462Z,30.90
2023-03-08T19:32:22.097Z,30.90
2023-03-08T19:34:52.432Z,30.88
2023-03-08T19:37:22.510Z,30.86
2023-03-08T19:39:52.472Z,30.87
2023-03-08T19:42:22.442Z,30.84
2023-03-08T19:44:53.355Z,30.86
2023-03-08T19:47:23.580Z,30.84
2023-03-08T19:49:53.726Z,30.84
2023-03-08T19:52:23.615Z,30.85
2023-03-08T19:54:53.587Z,30.86
2023-03-08T19:57:23.684Z,30.87
2023-03-08T19:59:53.555Z,30.83
2023-03-08T20:02:23.573Z,30.84
2023-03-08T20:04:53.505Z,30.83
2023-03-08T20:07:23.788Z,30.86
2023-03-08T20:10:02.286Z,30.83
2023-03-08T20:12:40.502Z,30.83
2023-03-08T20:15:10.628Z,30.83
2023-03-08T20:17:40.858Z,30.82
2023-03-08T20:20:11.945Z,30.80
2023-03-08T20:22:42.022Z,30.80
2023-03-08T20:25:14.442Z,30.80
2023-03-08T20:27:47.885Z,30.79
2023-03-08T20:30:18.146Z,30.76
2023-03-08T20:32:48.203Z,30.78
2023-03-08T20:35:20.793Z,30.78
2023-03-08T20:37:52.192Z,30.77
2023-03-08T20:40:23.061Z,30.77
2023-03-08T20:42:53.394Z,30.78
2023-03-08T20:45:26.050Z,30.78
2023-03-08T20:47:59.473Z,30.76
2023-03-08T20:50:30.221Z,30.78
2023-03-08T20:53:00.422Z,30.77
2023-03-08T20:55:30.383Z,30.77
2023-03-08T20:58:00.333Z,30.78
2023-03-08T21:00:30.356Z,30.74
2023-03-08T21:03:00.724Z,30.74
2023-03-08T21:05:30.930Z,30.74
2023-03-08T21:08:00.804Z,30.75
2023-03-08T21:10:30.991Z,30.73
2023-03-08T21:13:02.242Z,30.71
2023-03-08T21:15:31.981Z,30.71
2023-03-08T21:18:01.894Z,30.66
2023-03-08T21:20:31.810Z,30.71
2023-03-08T21:23:01.872Z,30.71
2023-03-08T21:25:31.905Z,30.68
2023-03-08T21:28:01.789Z,30.71
2023-03-08T21:30:33.049Z,30.68
2023-03-08T21:33:03.061Z,30.69
2023-03-08T21:35:33.031Z,30.66
2023-03-08T21:38:03.203Z,30.70
2023-03-08T21:40:42.320Z,30.69
2023-03-08T21:43:12.963Z,30.64
2023-03-08T21:45:44.631Z,30.64
2023-03-08T21:48:15.849Z,30.67
2023-03-08T21:50:45.953Z,30.68
2023-03-08T21:53:15.881Z,30.63
2023-03-08T21:55:47.685Z,30.64
2023-03-08T21:58:17.743Z,30.59
2023-03-08T22:00:55.970Z,30.62
2023-03-08T22:06:17.466Z,30.66
2023-03-08T22:08:47.853Z,30.64
2023-03-08T22:11:18.806Z,30.62
2023-03-08T22:13:57.467Z,30.62
2023-03-08T22:16:28.675Z,30.58
2023-03-08T22:19:02.515Z,30.61
2023-03-08T22:21:33.594Z,30.68
2023-03-08T22:24:05.194Z,30.63
2023-03-08T22:26:35.278Z,30.63
2023-03-08T22:29:05.157Z,30.62
2023-03-08T22:31:35.456Z,30.63
2023-03-08T22:34:06.397Z,30.63
2023-03-08T22:36:37.010Z,30.63
2023-03-08T22:39:07.228Z,30.58
2023-03-08T22:41:37.390Z,30.56
2023-03-08T22:44:09.036Z,30.56
2023-03-08T22:46:39.219Z,30.55
2023-03-08T22:49:16.003Z,30.59
2023-03-08T22:51:46.957Z,30.57
2023-03-08T22:54:22.012Z,30.60
2023-03-08T22:56:52.208Z,30.58
2023-03-08T23:15:19.478Z,30.36
2023-03-08T23:17:49.637Z,30.32
2023-03-08T23:20:22.204Z,30.30
2023-03-08T23:22:53.234Z,30.32
2023-03-08T23:25:23.344Z,30.33
2023-03-08T23:27:53.386Z,30.32
2023-03-08T23:30:23.594Z,30.32
2023-03-08T23:32:53.743Z,30.33
2023-03-08T23:35:23.793Z,30.34
2023-03-08T23:37:53.820Z,30.34
2023-03-08T23:40:23.757Z,30.35
2023-03-08T23:42:53.724Z,30.37
2023-03-08T23:45:23.767Z,30.35
2023-03-08T23:47:53.756Z,30.37
2023-03-08T23:50:23.682Z,30.34
2023-03-08T23:52:53.586Z,30.36
2023-03-08T23:55:23.507Z,30.41
2023-03-08T23:57:53.401Z,30.35
